Time;durP1;ratioP1;P1;durP2;ratioP2;P2;SDS_P1;SDS_P2;PMS_P1;PMS_P2;Temp;Humidity;BMP_temperature;BMP_pressure;BME280_temperature;BME280_humidity;BME280_pressure;Samples;Min_cycle;Max_cycle;Signal;HPM_P1;HPM_P2
2023/07/19 00:00:54;;;;;;;3.17;1.30;;;;;;;15.72;84.91;99561.00;10486152;28;20044;-75
2023/07/19 00:05:57;;;;;;;1.10;0.93;;;;;;;15.74;84.45;99561.47;10520715;28;20498;-75
2023/07/19 00:11:00;;;;;;;1.27;1.00;;;;;;;15.78;84.33;99554.09;10522383;28;20029;-75
2023/07/19 00:16:02;;;;;;;1.98;1.00;;;;;;;15.58;84.55;99543.88;10507779;28;20051;-75
2023/07/19 00:21:04;;;;;;;2.90;1.30;;;;;;;15.45;84.97;99545.81;10505343;28;20045;-75
2023/07/19 00:26:06;;;;;;;3.40;1.00;;;;;;;15.45;85.06;99543.06;10514985;28;20040;-75
2023/07/19 00:31:08;;;;;;;1.30;0.93;;;;;;;15.51;84.82;99533.38;10527198;28;20044;-75
2023/07/19 00:36:11;;;;;;;2.72;1.02;;;;;;;15.68;84.22;99538.75;10467606;28;20029;-74
2023/07/19 00:41:13;;;;;;;3.85;1.02;;;;;;;15.77;83.40;99529.53;10467396;28;20059;-74
2023/07/19 00:46:15;;;;;;;1.85;1.02;;;;;;;15.61;84.10;99524.66;10515233;28;20048;-74
2023/07/19 00:51:18;;;;;;;3.00;0.88;;;;;;;15.66;83.68;99518.94;10521891;28;20060;-74
2023/07/19 00:56:20;;;;;;;2.88;1.02;;;;;;;15.72;83.61;99516.75;10505117;28;20040;-74
2023/07/19 01:01:23;;;;;;;1.77;1.15;;;;;;;15.91;82.69;99513.44;10502057;28;20080;-74
2023/07/19 01:06:25;;;;;;;3.47;1.02;;;;;;;15.92;82.43;99517.81;10485012;28;20045;-74
2023/07/19 01:11:27;;;;;;;7.15;1.20;;;;;;;15.83;82.11;99523.47;10498894;28;20052;-74
2023/07/19 01:16:29;;;;;;;3.33;1.13;;;;;;;15.79;83.01;99511.44;10523596;28;20048;-74
2023/07/19 01:21:31;;;;;;;3.53;1.20;;;;;;;15.71;83.31;99508.81;10521174;28;20047;-74
2023/07/19 01:26:33;;;;;;;5.43;1.50;;;;;;;15.44;84.19;99507.44;10508234;28;20045;-74
2023/07/19 01:31:36;;;;;;;3.30;1.13;;;;;;;15.12;86.06;99509.06;10483353;28;20037;-74
2023/07/19 01:36:38;;;;;;;4.85;1.20;;;;;;;15.07;86.01;99507.28;10521675;28;20411;-74
2023/07/19 01:41:40;;;;;;;1.38;1.15;;;;;;;15.03;86.75;99498.06;10530540;28;20051;-74
2023/07/19 01:46:42;;;;;;;3.22;0.95;;;;;;;15.04;86.57;99499.69;10496043;28;20383;-74
2023/07/19 01:51:44;;;;;;;3.60;1.27;;;;;;;14.98;86.96;99501.06;10530161;28;20049;-75
2023/07/19 01:56:46;;;;;;;1.90;1.13;;;;;;;14.88;87.29;99487.63;10531018;28;20048;-75
2023/07/19 02:01:48;;;;;;;3.67;1.10;;;;;;;15.00;86.71;99490.47;10505607;28;20040;-75
2023/07/19 02:06:51;;;;;;;1.80;1.13;;;;;;;15.05;86.49;99484.72;10496644;28;20041;-73
2023/07/19 02:11:53;;;;;;;1.55;1.20;;;;;;;15.36;85.26;99490.59;10480586;28;20043;-73
2023/07/19 02:16:55;;;;;;;2.38;1.17;;;;;;;15.80;83.17;99490.97;10510973;28;20043;-73
2023/07/19 02:21:57;;;;;;;1.25;1.02;;;;;;;16.54;80.44;99497.28;10525723;28;20044;-75
2023/07/19 02:26:59;;;;;;;1.85;1.08;;;;;;;17.25;76.39;99491.09;10522917;28;20499;-75
2023/07/19 02:32:04;;;;;;;1.23;0.98;;;;;;;17.26;75.85;99494.66;10524032;28;20045;-74
2023/07/19 02:37:06;;;;;;;2.97;1.42;;;;;;;17.63;73.80;99486.97;10483065;28;20443;-74
2023/07/19 02:42:08;;;;;;;1.98;1.00;;;;;;;17.82;73.17;99486.28;10525823;28;20040;-75
2023/07/19 02:47:12;;;;;;;2.25;0.95;;;;;;;18.19;71.28;99473.72;10489386;28;20045;-75
2023/07/19 02:52:14;;;;;;;2.38;1.15;;;;;;;18.32;70.78;99472.44;10492775;28;20056;-74
2023/07/19 02:57:16;;;;;;;1.58;1.20;;;;;;;18.49;69.66;99471.25;10531163;28;20040;-74
2023/07/19 03:02:18;;;;;;;1.67;0.90;;;;;;;18.80;68.16;99475.94;10482511;28;20037;-74
2023/07/19 03:07:21;;;;;;;1.10;1.00;;;;;;;19.40;66.36;99473.56;10489267;28;20064;-74
2023/07/19 03:12:24;;;;;;;2.58;1.13;;;;;;;19.72;65.43;99473.38;10508258;28;20044;-74
2023/07/19 03:17:26;;;;;;;3.20;1.35;;;;;;;19.91;64.72;99464.94;10525048;28;20454;-75
2023/07/19 03:22:28;;;;;;;1.70;1.17;;;;;;;19.63;65.08;99464.47;10501987;28;20036;-74
2023/07/19 03:27:30;;;;;;;2.38;1.10;;;;;;;20.28;62.82;99476.28;10523756;28;20064;-74
2023/07/19 03:32:32;;;;;;;2.13;1.20;;;;;;;20.47;62.30;99469.81;10515379;28;20041;-74
2023/07/19 03:37:36;;;;;;;1.98;1.35;;;;;;;21.28;59.96;99474.91;10505870;28;20049;-74
2023/07/19 03:42:39;;;;;;;2.60;1.38;;;;;;;21.96;57.61;99476.38;10523613;28;20032;-74
2023/07/19 03:47:41;;;;;;;2.50;1.20;;;;;;;21.61;57.98;99465.69;10498621;28;20410;-74
2023/07/19 03:52:43;;;;;;;2.10;1.30;;;;;;;20.67;60.62;99467.75;10492483;28;20057;-74
2023/07/19 03:57:47;;;;;;;1.50;1.00;;;;;;;22.24;56.72;99459.06;10487473;28;20043;-74
2023/07/19 04:02:51;;;;;;;2.00;1.13;;;;;;;21.78;56.72;99459.47;10505591;28;20056;-74
2023/07/19 04:07:54;;;;;;;2.28;1.45;;;;;;;21.38;58.54;99451.09;10502396;28;20041;-74
2023/07/19 04:12:56;;;;;;;1.23;1.00;;;;;;;21.80;56.91;99451.50;10505238;28;20040;-74
2023/07/19 04:17:58;;;;;;;3.75;1.10;;;;;;;21.34;57.78;99445.44;10500745;28;20048;-74
2023/07/19 04:23:00;;;;;;;1.65;1.17;;;;;;;21.74;56.89;99438.28;10488535;28;20398;-74
2023/07/19 04:28:03;;;;;;;2.42;1.15;;;;;;;22.15;55.66;99437.03;10501526;28;20044;-74
2023/07/19 04:33:05;;;;;;;2.58;1.10;;;;;;;22.33;55.10;99428.78;10516576;28;20056;-74
2023/07/19 04:38:07;;;;;;;1.60;1.20;;;;;;;22.47;54.40;99423.28;10519585;28;20043;-74
2023/07/19 04:43:09;;;;;;;2.28;1.88;;;;;;;23.02;53.03;99416.75;10506323;28;20033;-75
2023/07/19 04:48:12;;;;;;;1.73;1.20;;;;;;;23.57;51.55;99419.31;10496582;28;20048;-74
2023/07/19 04:53:15;;;;;;;1.00;0.90;;;;;;;23.92;50.28;99421.31;10501030;28;20052;-74
2023/07/19 04:58:17;;;;;;;2.33;1.00;;;;;;;23.77;50.04;99432.50;10489813;28;20052;-74
2023/07/19 05:03:19;;;;;;;1.17;1.05;;;;;;;23.79;50.98;99432.16;10508466;28;20051;-74
2023/07/19 05:08:21;;;;;;;3.42;1.10;;;;;;;24.45;49.67;99423.28;10527102;28;20060;-74
2023/07/19 05:13:23;;;;;;;2.47;0.90;;;;;;;24.99;48.10;99419.06;10527071;28;20041;-74
2023/07/19 05:18:26;;;;;;;1.90;1.00;;;;;;;25.06;47.83;99410.66;10516483;28;20055;-75
2023/07/19 05:23:28;;;;;;;0.98;0.80;;;;;;;23.99;49.87;99421.34;10511086;28;20043;-75
2023/07/19 05:28:31;;;;;;;1.15;0.93;;;;;;;24.90;48.10;99418.72;10499184;28;20103;-75
2023/07/19 05:33:34;;;;;;;3.85;0.90;;;;;;;25.70;46.06;99420.72;10526011;28;20336;-74
2023/07/19 05:38:36;;;;;;;2.60;1.00;;;;;;;24.23;48.54;99414.09;10519165;28;20051;-75
2023/07/19 05:43:39;;;;;;;2.63;0.90;;;;;;;22.80;52.10;99422.25;10508521;28;20036;-73
2023/07/19 05:48:41;;;;;;;6.07;1.55;;;;;;;22.61;53.28;99418.97;10508150;28;20052;-73
2023/07/19 05:53:43;;;;;;;1.48;0.90;;;;;;;24.56;47.32;99410.84;10532153;28;20506;-73
2023/07/19 05:58:45;;;;;;;3.22;1.13;;;;;;;23.61;49.39;99404.13;10531149;28;20434;-74
2023/07/19 06:03:47;;;;;;;1.63;0.80;;;;;;;26.05;45.38;99411.19;10533659;28;20044;-75
2023/07/19 06:08:49;;;;;;;1.35;0.98;;;;;;;25.24;46.14;99399.34;10532983;28;20520;-75
2023/07/19 06:13:52;;;;;;;2.80;1.15;;;;;;;22.71;51.98;99398.63;10533103;28;20040;-75
2023/07/19 06:18:54;;;;;;;0.88;0.88;;;;;;;23.59;49.45;99403.69;10533586;28;20048;-75
2023/07/19 06:23:56;;;;;;;2.83;0.90;;;;;;;22.95;51.39;99409.16;10531864;28;20048;-75
2023/07/19 06:28:58;;;;;;;2.70;0.90;;;;;;;23.44;49.07;99410.47;10533180;28;20048;-75
2023/07/19 06:34:00;;;;;;;4.30;1.00;;;;;;;21.70;53.73;99423.50;10535824;28;20045;-75
2023/07/19 06:39:02;;;;;;;1.30;0.88;;;;;;;24.87;47.40;99408.31;10532193;28;20454;-75
2023/07/19 06:44:04;;;;;;;1.48;0.80;;;;;;;24.98;46.91;99402.63;10541399;28;20040;-75
2023/07/19 06:49:07;;;;;;;1.02;0.82;;;;;;;22.85;50.42;99398.72;10556287;28;20040;-75
2023/07/19 06:54:09;;;;;;;3.92;0.98;;;;;;;23.64;50.34;99403.31;10572896;28;20055;-75
2023/07/19 06:59:11;;;;;;;2.08;1.13;;;;;;;25.04;45.96;99396.25;10573466;28;20399;-75
2023/07/19 07:04:13;;;;;;;1.15;0.73;;;;;;;23.79;48.42;99392.94;10573549;28;20036;-75
2023/07/19 07:09:16;;;;;;;1.30;0.90;;;;;;;22.46;51.09;99384.53;10553970;28;20565;-73
2023/07/19 07:14:18;;;;;;;1.02;0.80;;;;;;;24.20;48.42;99389.66;10538185;28;20067;-75
2023/07/19 07:19:20;;;;;;;2.15;1.02;;;;;;;25.80;44.07;99386.09;10572450;28;20032;-73
2023/07/19 07:24:22;;;;;;;1.05;0.80;;;;;;;26.40;43.21;99384.75;10554143;28;20425;-75
2023/07/19 07:29:24;;;;;;;4.95;1.63;;;;;;;26.92;42.31;99384.53;10572233;28;20054;-75
2023/07/19 07:34:26;;;;;;;1.13;0.93;;;;;;;27.04;41.07;99379.13;10571107;28;20052;-75
2023/07/19 07:39:29;;;;;;;19.38;8.20;;;;;;;28.03;39.76;99378.81;10553469;28;20039;-73
2023/07/19 07:44:31;;;;;;;1.45;1.00;;;;;;;25.15;44.20;99376.50;10571137;28;20092;-75
2023/07/19 07:49:34;;;;;;;2.28;1.13;;;;;;;25.60;42.59;99377.41;10553654;28;20048;-75
2023/07/19 07:54:36;;;;;;;3.00;1.08;;;;;;;24.61;45.40;99365.53;10553163;28;20060;-75
2023/07/19 07:59:38;;;;;;;1.58;0.90;;;;;;;22.31;50.01;99383.66;10571526;28;20043;-73
2023/07/19 08:04:40;;;;;;;2.60;1.88;;;;;;;21.58;53.01;99374.31;10532811;28;20045;-73
2023/07/19 08:09:42;;;;;;;1.95;1.40;;;;;;;21.55;52.96;99386.28;10528361;28;20403;-73
2023/07/19 08:14:44;;;;;;;1.40;0.88;;;;;;;23.42;50.16;99373.66;10510377;28;20052;-74
2023/07/19 08:19:46;;;;;;;1.10;0.98;;;;;;;25.05;46.35;99357.75;10509039;28;20522;-74
2023/07/19 08:24:49;;;;;;;1.77;0.98;;;;;;;25.03;46.60;99366.56;10527859;28;20139;-73
2023/07/19 08:29:52;;;;;;;2.45;1.67;;;;;;;23.11;50.68;99361.22;10527571;28;20055;-75
2023/07/19 08:34:54;;;;;;;3.28;1.00;;;;;;;22.83;51.13;99357.16;10527197;28;20053;-75
2023/07/19 08:39:56;;;;;;;2.40;1.27;;;;;;;22.14;53.08;99354.41;10509850;28;20048;-75
2023/07/19 08:44:58;;;;;;;2.55;1.17;;;;;;;22.13;54.04;99363.19;10527475;28;20043;-75
2023/07/19 08:50:04;;;;;;;2.95;1.70;;;;;;;23.20;52.13;99363.63;10527061;28;20044;-74
2023/07/19 08:55:07;;;;;;;10.05;4.75;;;;;;;24.94;48.24;99349.34;10527231;28;20060;-75
2023/07/19 09:00:09;;;;;;;2.88;1.80;;;;;;;23.63;50.57;99365.31;10527452;28;20051;-75
2023/07/19 09:05:13;;;;;;;2.78;1.10;;;;;;;22.69;53.21;99357.06;10509180;28;20040;-75
2023/07/19 09:10:16;;;;;;;2.40;1.25;;;;;;;24.53;49.11;99365.97;10509911;28;20036;-74
2023/07/19 09:15:19;;;;;;;22.38;9.20;;;;;;;23.69;51.63;99346.09;10515302;28;20040;-74
2023/07/19 09:20:26;;;;;;;3.83;1.45;;;;;;;23.04;53.28;99345.22;10485645;28;20491;-74
2023/07/19 09:25:28;;;;;;;11.00;6.50;;;;;;;22.05;56.19;99350.38;10484824;28;20052;-75
2023/07/19 09:30:30;;;;;;;18.70;8.48;;;;;;;21.07;58.41;99352.69;10485019;28;20534;-75
2023/07/19 09:35:33;;;;;;;2.67;1.95;;;;;;;20.89;58.86;99360.06;10466924;28;20049;-75
2023/07/19 09:40:36;;;;;;;1.30;1.20;;;;;;;20.89;58.10;99357.28;10451409;28;20044;-75
2023/07/19 09:45:40;;;;;;;2.58;1.65;;;;;;;20.90;58.75;99354.09;10467336;28;20071;-75
2023/07/19 09:50:42;;;;;;;1.13;1.02;;;;;;;21.45;57.52;99351.47;10467082;28;20044;-75
2023/07/19 09:55:48;;;;;;;3.45;1.20;;;;;;;22.40;55.46;99339.41;10466908;28;20045;-75
2023/07/19 10:00:50;;;;;;;2.45;1.67;;;;;;;22.31;55.01;99336.13;10471746;28;20052;-74
2023/07/19 10:05:58;;;;;;;5.22;1.67;;;;;;;22.37;54.76;99342.94;10491652;28;20048;-75
2023/07/19 10:11:01;;;;;;;3.33;1.20;;;;;;;21.47;56.74;99343.53;10492176;28;20041;-75
2023/07/19 10:16:03;;;;;;;4.50;1.35;;;;;;;21.52;57.76;99356.31;10491373;28;20063;-75
2023/07/19 10:21:10;;;;;;;1.20;1.05;;;;;;;21.54;57.19;99340.81;10457012;28;20396;-74
2023/07/19 10:26:12;;;;;;;2.25;1.23;;;;;;;21.79;57.69;99357.75;10491384;28;20049;-75
2023/07/19 10:31:14;;;;;;;2.33;1.23;;;;;;;21.86;57.82;99343.00;10490877;28;20052;-74
2023/07/19 10:36:17;;;;;;;1.80;1.55;;;;;;;21.35;57.32;99358.59;10490141;28;20052;-75
2023/07/19 10:41:20;;;;;;;3.13;1.58;;;;;;;21.17;58.13;99346.41;10490500;28;20063;-75
2023/07/19 10:46:22;;;;;;;2.97;2.33;;;;;;;21.15;57.71;99359.94;10490787;28;20048;-75
2023/07/19 10:51:24;;;;;;;1.88;1.30;;;;;;;21.61;56.02;99340.06;10489707;28;20415;-75
2023/07/19 10:56:27;;;;;;;10.35;4.43;;;;;;;22.31;53.63;99335.34;10485920;28;20048;-75
2023/07/19 11:01:29;;;;;;;3.22;1.90;;;;;;;22.21;53.19;99334.88;10489887;28;20502;-75
2023/07/19 11:06:36;;;;;;;4.13;3.13;;;;;;;22.14;54.25;99343.25;10489490;28;20185;-75
2023/07/19 11:11:38;;;;;;;2.78;2.10;;;;;;;21.78;55.15;99347.75;10489512;28;20045;-74
2023/07/19 11:16:40;;;;;;;3.78;2.80;;;;;;;22.02;55.24;99349.09;10511607;28;20036;-74
2023/07/19 11:21:44;;;;;;;3.45;1.17;;;;;;;22.06;55.37;99341.59;10532556;28;20051;-75
2023/07/19 11:26:52;;;;;;;59.50;20.20;;;;;;;21.26;60.84;99355.31;10530261;28;20048;-75
2023/07/19 11:31:54;;;;;;;244.77;117.72;;;;;;;20.39;63.54;99346.31;10530352;28;20040;-75
2023/07/19 11:36:56;;;;;;;3.15;2.08;;;;;;;19.27;70.62;99344.19;10529732;28;20056;-75
2023/07/19 11:41:59;;;;;;;2.72;2.00;;;;;;;19.13;71.26;99353.06;10530118;28;20052;-75
2023/07/19 11:47:01;;;;;;;1.02;1.00;;;;;;;19.01;71.60;99347.69;10529498;28;20540;-75
2023/07/19 11:52:03;;;;;;;2.75;1.65;;;;;;;19.28;70.35;99343.81;10511183;28;20426;-75
2023/07/19 11:57:05;;;;;;;47.95;15.88;;;;;;;20.03;68.80;99330.28;10529176;28;20534;-75
2023/07/19 12:02:08;;;;;;;3.83;1.50;;;;;;;20.30;64.91;99339.41;10529226;28;20040;-75
2023/07/19 12:07:11;;;;;;;8.45;3.97;;;;;;;20.68;64.35;99339.13;10528954;28;20044;-75
2023/07/19 12:12:13;;;;;;;6.20;3.35;;;;;;;21.05;63.14;99327.97;10528702;28;20518;-75
2023/07/19 12:17:16;;;;;;;13.48;8.25;;;;;;;21.18;61.33;99334.09;10524723;28;20049;-74
2023/07/19 12:22:18;;;;;;;4.63;2.35;;;;;;;21.11;60.54;99336.78;10525352;28;20079;-75
2023/07/19 12:27:20;;;;;;;3.92;2.13;;;;;;;20.89;61.37;99332.97;10527867;28;20051;-75
2023/07/19 12:32:22;;;;;;;2.17;1.92;;;;;;;20.36;62.62;99346.25;10510054;28;20056;-75
2023/07/19 12:37:25;;;;;;;2.30;1.60;;;;;;;20.31;62.40;99336.25;10527679;28;20518;-75
2023/07/19 12:42:28;;;;;;;2.05;1.45;;;;;;;20.02;62.73;99334.25;10528958;28;20534;-75
2023/07/19 12:47:31;;;;;;;2.30;1.60;;;;;;;20.14;62.32;99332.06;10528286;28;20529;-75
2023/07/19 12:52:34;;;;;;;2.15;1.60;;;;;;;20.53;61.18;99345.72;10525898;28;20055;-74
2023/07/19 12:57:37;;;;;;;1.60;1.40;;;;;;;20.29;61.09;99332.22;10547073;28;20044;-74
2023/07/19 13:02:39;;;;;;;2.10;1.23;;;;;;;20.07;61.90;99334.72;10553222;28;20486;-74
2023/07/19 13:07:41;;;;;;;2.92;1.67;;;;;;;20.34;61.06;99334.69;10530454;28;20052;-75
2023/07/19 13:12:43;;;;;;;1.40;1.30;;;;;;;20.25;60.31;99336.94;10527508;28;20049;-75
2023/07/19 13:17:46;;;;;;;3.33;1.45;;;;;;;20.16;60.47;99343.63;10526705;28;20533;-74
2023/07/19 13:22:48;;;;;;;2.53;1.45;;;;;;;20.18;60.88;99343.25;10526433;28;20051;-74
2023/07/19 13:27:50;;;;;;;2.08;1.60;;;;;;;20.26;59.60;99349.69;10526504;28;20049;-75
2023/07/19 13:32:52;;;;;;;2.45;1.77;;;;;;;19.89;61.38;99344.81;10526797;28;20044;-75
2023/07/19 13:37:54;;;;;;;4.57;1.50;;;;;;;19.84;61.54;99343.16;10535035;28;20109;-75
2023/07/19 13:42:56;;;;;;;1.90;1.50;;;;;;;19.71;62.62;99338.97;10533930;28;20048;-74
2023/07/19 13:47:58;;;;;;;2.72;1.42;;;;;;;19.91;61.12;99342.44;10533675;28;20438;-75
2023/07/19 13:53:03;;;;;;;1.88;1.60;;;;;;;19.64;61.57;99336.09;10533507;28;20064;-74
2023/07/19 13:58:06;;;;;;;2.10;1.38;;;;;;;19.65;61.52;99340.47;10533044;28;20052;-75
2023/07/19 14:03:09;;;;;;;13.43;4.00;;;;;;;19.71;60.13;99336.19;10533100;28;20048;-74
2023/07/19 14:08:11;;;;;;;4.45;2.30;;;;;;;20.04;58.88;99334.69;10533576;28;20041;-74
2023/07/19 14:13:13;;;;;;;9.65;2.67;;;;;;;20.44;58.82;99339.63;10532820;28;20419;-74
2023/07/19 14:18:15;;;;;;;4.00;2.28;;;;;;;20.34;58.62;99337.47;10535623;28;20414;-74
2023/07/19 14:23:17;;;;;;;2.15;1.50;;;;;;;20.04;58.43;99335.47;10532761;28;20039;-74
2023/07/19 14:28:20;;;;;;;2.80;1.40;;;;;;;19.79;59.55;99340.69;10532360;28;20056;-74
2023/07/19 14:33:22;;;;;;;2.33;1.48;;;;;;;19.69;59.67;99335.75;10532460;28;20422;-74
2023/07/19 14:38:27;;;;;;;3.92;1.70;;;;;;;19.89;60.08;99342.03;10532334;28;20041;-74
2023/07/19 14:43:30;;;;;;;2.88;1.85;;;;;;;20.32;59.15;99343.44;10514476;28;20060;-74
2023/07/19 14:48:33;;;;;;;3.22;1.23;;;;;;;20.32;59.39;99342.63;10532221;28;20040;-74
2023/07/19 14:53:35;;;;;;;1.10;0.93;;;;;;;20.01;59.53;99341.00;10531297;28;20530;-74
2023/07/19 14:58:37;;;;;;;8.40;1.33;;;;;;;19.80;61.09;99352.63;10513434;28;20044;-74
2023/07/19 15:03:39;;;;;;;1.10;1.00;;;;;;;19.51;63.25;99341.00;10531191;28;20049;-74
2023/07/19 15:08:42;;;;;;;1.40;1.30;;;;;;;19.44;62.12;99343.69;10530919;28;20037;-74
2023/07/19 15:13:45;;;;;;;2.35;1.00;;;;;;;19.45;61.27;99341.72;10530790;28;20056;-74
2023/07/19 15:18:47;;;;;;;4.68;1.15;;;;;;;19.66;60.49;99338.50;10529523;28;20540;-74
2023/07/19 15:23:49;;;;;;;1.80;1.10;;;;;;;19.75;58.49;99333.44;10525350;28;20040;-74
2023/07/19 15:28:51;;;;;;;3.75;1.25;;;;;;;19.79;59.32;99334.34;10491174;28;20037;-74
2023/07/19 15:33:53;;;;;;;3.78;1.88;;;;;;;19.74;60.32;99329.88;10492934;28;20052;-74
2023/07/19 15:38:55;;;;;;;2.65;1.05;;;;;;;19.58;61.13;99326.44;10523954;28;20048;-74
2023/07/19 15:43:57;;;;;;;2.00;1.10;;;;;;;19.54;61.40;99333.94;10512187;28;20116;-76
2023/07/19 15:49:00;;;;;;;1.63;1.05;;;;;;;19.37;61.59;99328.84;10519024;28;20043;-75
2023/07/19 15:54:02;;;;;;;1.85;1.00;;;;;;;19.16;63.03;99324.53;10569853;28;20161;-75
2023/07/19 15:59:04;;;;;;;1.42;1.00;;;;;;;19.04;62.33;99329.44;10570413;28;20047;-75
2023/07/19 16:04:06;;;;;;;1.67;1.00;;;;;;;18.97;62.28;99332.91;10570072;28;20422;-75
2023/07/19 16:09:08;;;;;;;2.22;0.95;;;;;;;18.92;63.18;99325.69;10552618;28;20039;-74
2023/07/19 16:14:10;;;;;;;2.80;1.00;;;;;;;18.88;63.85;99329.56;10570960;28;20048;-75
2023/07/19 16:19:13;;;;;;;2.00;1.02;;;;;;;18.83;63.55;99322.34;10571036;28;20040;-75
2023/07/19 16:24:15;;;;;;;1.52;0.98;;;;;;;18.82;63.64;99325.47;10535349;28;20044;-75
2023/07/19 16:29:17;;;;;;;1.30;1.00;;;;;;;18.76;63.53;99330.53;10527921;28;20047;-74
2023/07/19 16:34:19;;;;;;;1.63;1.10;;;;;;;18.76;63.54;99333.31;10527918;28;20442;-75
2023/07/19 16:39:21;;;;;;;2.13;1.10;;;;;;;18.64;63.88;99328.72;10510073;28;20033;-75
2023/07/19 16:44:23;;;;;;;0.90;0.90;;;;;;;18.58;64.04;99327.38;10511908;28;20052;-75
2023/07/19 16:49:25;;;;;;;2.30;0.88;;;;;;;18.56;65.40;99326.13;10527325;28;20494;-75
2023/07/19 16:54:27;;;;;;;1.48;1.00;;;;;;;18.37;66.77;99336.06;10526932;28;20055;-74
2023/07/19 16:59:30;;;;;;;1.20;1.10;;;;;;;18.29;65.84;99341.84;10531071;28;20054;-75
2023/07/19 17:04:33;;;;;;;3.70;1.33;;;;;;;18.42;65.08;99339.75;10526526;28;20056;-75
2023/07/19 17:09:35;;;;;;;2.08;1.20;;;;;;;18.42;65.27;99334.19;10532153;28;20052;-75
2023/07/19 17:14:37;;;;;;;3.20;1.15;;;;;;;18.55;64.72;99343.97;10518336;28;20044;-75
2023/07/19 17:19:40;;;;;;;1.10;0.88;;;;;;;18.94;62.97;99334.47;10535149;28;20411;-75
2023/07/19 17:24:42;;;;;;;1.30;1.10;;;;;;;18.67;63.18;99343.84;10517442;28;20067;-75
2023/07/19 17:29:44;;;;;;;1.25;1.08;;;;;;;18.22;64.57;99336.13;10534861;28;20036;-75
2023/07/19 17:34:47;;;;;;;1.60;1.13;;;;;;;18.26;65.17;99335.06;10534646;28;20418;-75
2023/07/19 17:39:49;;;;;;;3.50;1.13;;;;;;;18.28;65.56;99346.59;10534692;28;20036;-75
2023/07/19 17:44:52;;;;;;;1.88;1.00;;;;;;;18.05;66.29;99338.19;10515599;28;20040;-75
2023/07/19 17:49:54;;;;;;;1.13;1.10;;;;;;;18.18;66.38;99333.28;10533519;28;20064;-75
2023/07/19 17:54:56;;;;;;;1.90;1.13;;;;;;;18.13;66.78;99344.69;10532794;28;20045;-74
2023/07/19 17:59:58;;;;;;;3.35;1.00;;;;;;;18.10;67.57;99350.97;10532823;28;20052;-75
2023/07/19 18:05:01;;;;;;;1.80;1.20;;;;;;;18.22;66.98;99350.84;10515433;28;20044;-75
2023/07/19 18:10:03;;;;;;;2.83;1.10;;;;;;;18.06;67.37;99356.44;10533141;28;20048;-75
2023/07/19 18:15:06;;;;;;;1.17;0.93;;;;;;;18.05;67.87;99351.25;10533108;28;20091;-75
2023/07/19 18:20:09;;;;;;;4.82;1.10;;;;;;;17.97;68.03;99355.81;10531804;28;20048;-75
2023/07/19 18:25:11;;;;;;;1.15;1.05;;;;;;;17.46;69.73;99366.88;10515082;28;20506;-75
2023/07/19 18:30:13;;;;;;;2.17;1.02;;;;;;;17.38;70.43;99358.75;10514769;28;20040;-75
2023/07/19 18:35:15;;;;;;;1.30;1.20;;;;;;;17.36;70.90;99363.84;10532260;28;20056;-75
2023/07/19 18:40:18;;;;;;;2.75;1.00;;;;;;;17.34;70.80;99357.81;10532662;28;20516;-74
2023/07/19 18:45:20;;;;;;;4.30;1.67;;;;;;;17.49;70.74;99355.06;10532072;28;20051;-75
2023/07/19 18:50:22;;;;;;;4.55;1.23;;;;;;;17.65;70.11;99362.56;10514032;28;20055;-75
2023/07/19 18:55:24;;;;;;;1.20;1.00;;;;;;;17.51;69.75;99357.47;10534152;28;20426;-75
2023/07/19 19:00:28;;;;;;;1.40;1.10;;;;;;;17.52;69.72;99361.84;10514156;28;20037;-74
2023/07/19 19:05:31;;;;;;;2.03;1.13;;;;;;;17.36;70.35;99366.63;10531126;28;20043;-75
2023/07/19 19:10:33;;;;;;;3.65;1.13;;;;;;;17.13;71.35;99358.09;10496017;28;20052;-75
2023/07/19 19:15:36;;;;;;;2.35;0.93;;;;;;;17.11;70.95;99361.22;10530171;28;20429;-75
2023/07/19 19:20:38;;;;;;;1.98;1.10;;;;;;;17.04;71.18;99354.69;10528208;28;20047;-75
2023/07/19 19:25:40;;;;;;;1.67;1.13;;;;;;;17.04;71.11;99365.78;10528704;28;20037;-74
2023/07/19 19:30:42;;;;;;;4.45;1.40;;;;;;;17.07;71.00;99354.78;10498648;28;20054;-74
2023/07/19 19:35:44;;;;;;;1.88;1.13;;;;;;;16.99;71.40;99366.00;10519942;28;20419;-75
2023/07/19 19:40:47;;;;;;;2.17;1.10;;;;;;;17.52;69.74;99361.03;10511574;28;20032;-75
2023/07/19 19:45:49;;;;;;;2.35;1.20;;;;;;;17.40;69.89;99356.41;10511850;28;20078;-75
2023/07/19 19:50:51;;;;;;;1.90;1.00;;;;;;;17.41;69.77;99347.72;10531263;28;20040;-75
2023/07/19 19:55:53;;;;;;;1.45;0.93;;;;;;;17.46;69.15;99355.78;10528420;28;20067;-75
2023/07/19 20:00:55;;;;;;;1.42;1.08;;;;;;;17.33;69.43;99345.94;10494095;28;20040;-75
2023/07/19 20:05:57;;;;;;;4.53;1.10;;;;;;;17.18;69.79;99350.34;10510564;28;20530;-81
2023/07/19 20:11:00;;;;;;;1.70;1.25;;;;;;;17.22;69.93;99338.53;10508726;28;20028;-74
2023/07/19 20:16:02;;;;;;;1.83;0.95;;;;;;;17.44;68.42;99340.66;10500141;28;20048;-75
2023/07/19 20:21:04;;;;;;;1.85;1.35;;;;;;;17.36;68.45;99338.88;10520744;28;20502;-74
2023/07/19 20:26:07;;;;;;;1.70;1.00;;;;;;;17.18;69.07;99338.41;10503045;28;20037;-78
2023/07/19 20:31:09;;;;;;;1.42;0.85;;;;;;;17.14;69.25;99341.09;10511086;28;20056;-75
2023/07/19 20:36:11;;;;;;;1.05;0.80;;;;;;;17.12;69.21;99342.63;10508115;28;20040;-75
2023/07/19 20:41:14;;;;;;;1.20;1.00;;;;;;;17.15;69.82;99339.94;10476118;28;20040;-75
2023/07/19 20:46:16;;;;;;;2.38;1.08;;;;;;;17.32;69.09;99338.78;10519481;28;20049;-75
2023/07/19 20:51:18;;;;;;;1.67;0.80;;;;;;;17.51;68.72;99332.50;10513885;28;20049;-75
2023/07/19 20:56:21;;;;;;;2.00;0.80;;;;;;;17.64;68.59;99335.97;10501694;28;20067;-75
2023/07/19 21:01:23;;;;;;;1.13;0.95;;;;;;;17.61;68.92;99334.75;10511068;28;20097;-75
2023/07/19 21:06:25;;;;;;;1.30;1.20;;;;;;;17.78;68.41;99334.38;10504957;28;20037;-77
2023/07/19 21:11:28;;;;;;;1.33;0.85;;;;;;;17.56;69.05;99337.81;10517286;28;20173;-76
2023/07/19 21:16:30;;;;;;;1.38;0.70;;;;;;;17.49;69.83;99332.88;10520586;28;20036;-76
2023/07/19 21:21:34;;;;;;;1.50;0.88;;;;;;;17.15;71.73;99333.59;10523284;28;20414;-77
2023/07/19 21:26:36;;;;;;;1.60;0.80;;;;;;;17.14;71.74;99332.78;10506628;28;20056;-76
2023/07/19 21:31:38;;;;;;;1.58;0.80;;;;;;;17.08;72.37;99331.44;10523290;28;20060;-76
2023/07/19 21:36:41;;;;;;;1.92;0.80;;;;;;;17.11;72.86;99329.91;10503151;28;20036;-77
2023/07/19 21:41:48;;;;;;;0.75;0.55;;;;;;;16.97;73.97;99322.03;10521506;28;20044;-77
2023/07/19 21:46:50;;;;;;;1.00;0.60;;;;;;;17.01;74.41;99328.50;10502249;28;20055;-77
2023/07/19 21:51:52;;;;;;;3.13;0.90;;;;;;;16.95;75.50;99329.09;10522454;28;20040;-78
2023/07/19 21:56:55;;;;;;;1.38;0.80;;;;;;;17.02;75.62;99315.44;10529235;28;20415;-77
2023/07/19 22:01:57;;;;;;;2.22;0.88;;;;;;;16.88;76.63;99324.19;10519469;28;20040;-78
2023/07/19 22:07:04;;;;;;;2.75;0.60;;;;;;;16.84;77.02;99324.09;10527997;28;20063;-76
2023/07/19 22:12:10;;;;;;;2.33;0.70;;;;;;;16.86;76.92;99320.97;10530325;28;20048;-76
2023/07/19 22:17:12;;;;;;;2.58;0.93;;;;;;;17.00;76.58;99321.31;10530158;28;20048;-76
2023/07/19 22:22:15;;;;;;;1.15;0.80;;;;;;;16.92;76.86;99321.50;10529354;28;20036;-76
2023/07/19 22:27:22;;;;;;;0.57;0.50;;;;;;;17.18;75.90;99314.28;10528040;28;20134;-76
2023/07/19 22:32:24;;;;;;;0.75;0.70;;;;;;;17.11;76.03;99310.50;10529050;28;20040;-76
2023/07/19 22:37:32;;;;;;;1.33;0.85;;;;;;;17.18;76.25;99317.06;10528388;28;20067;-76
2023/07/19 22:42:34;;;;;;;1.85;0.82;;;;;;;17.13;76.87;99313.72;10526529;28;20032;-76
2023/07/19 22:47:36;;;;;;;2.28;0.90;;;;;;;17.11;77.02;99322.41;10527664;28;20037;-76
2023/07/19 22:52:50;;;;;;;2.22;0.70;;;;;;;17.12;77.02;99324.03;10528291;28;20494;-76
2023/07/19 22:57:53;;;;;;;1.42;0.60;;;;;;;17.00;77.48;99326.84;10472525;28;20052;-76
2023/07/19 23:02:56;;;;;;;4.60;0.95;;;;;;;17.16;77.45;99324.91;10507934;28;20040;-76
2023/07/19 23:07:58;;;;;;;2.78;0.70;;;;;;;17.14;77.88;99321.69;10526216;28;20044;-77
2023/07/19 23:13:00;;;;;;;1.63;0.73;;;;;;;17.07;78.20;99306.84;10527794;28;20040;-76
2023/07/19 23:18:03;;;;;;;2.08;1.02;;;;;;;16.83;80.01;99311.41;10525211;28;20059;-76
2023/07/19 23:23:10;;;;;;;5.28;0.75;;;;;;;16.64;80.51;99304.88;10527492;28;20043;-75